Time;durP1;ratioP1;P1;durP2;ratioP2;P2;SDS_P1;SDS_P2;PMS_P1;PMS_P2;Temp;Humidity;BMP_temperature;BMP_pressure;BME280_temperature;BME280_humidity;BME280_pressure;Samples;Min_cycle;Max_cycle;Signal;HPM_P1;HPM_P2
2023/05/11 00:01:40;;;;;;;4.10;2.10;;;;;;;21.26;44.67;100309.16;5071339;28;20083;-65
2023/05/11 00:04:09;;;;;;;3.88;2.30;;;;;;;21.26;44.70;100311.88;5071347;28;20045;-65
2023/05/11 00:06:37;;;;;;;3.58;2.00;;;;;;;21.25;44.99;100312.00;5071143;28;20041;-65
2023/05/11 00:09:05;;;;;;;4.93;2.10;;;;;;;21.24;44.39;100310.28;5071091;28;20045;-65
2023/05/11 00:11:33;;;;;;;4.15;2.13;;;;;;;21.23;44.79;100311.28;5070914;28;20060;-64
2023/05/11 00:14:01;;;;;;;5.45;2.17;;;;;;;21.22;45.05;100306.88;5071339;28;20048;-64
2023/05/11 00:16:29;;;;;;;4.40;2.22;;;;;;;21.22;44.83;100306.88;5071125;28;20139;-64
2023/05/11 00:18:59;;;;;;;3.95;2.05;;;;;;;21.20;44.82;100311.59;5071094;28;20102;-66
2023/05/11 00:21:27;;;;;;;3.72;2.22;;;;;;;21.19;44.95;100308.03;5070922;28;20052;-63
2023/05/11 00:23:56;;;;;;;4.32;2.08;;;;;;;21.19;44.61;100304.47;5071054;28;20098;-64
2023/05/11 00:26:25;;;;;;;5.93;2.33;;;;;;;21.17;44.68;100310.06;5071199;28;20154;-63
2023/05/11 00:28:53;;;;;;;3.65;2.20;;;;;;;21.16;44.87;100308.38;5071157;28;20572;-65
2023/05/11 00:31:21;;;;;;;4.13;1.98;;;;;;;21.17;44.82;100303.78;5071096;28;20442;-65
2023/05/11 00:33:50;;;;;;;3.75;2.13;;;;;;;21.14;44.82;100303.13;5070856;28;20106;-65
2023/05/11 00:36:19;;;;;;;4.22;2.05;;;;;;;21.14;44.66;100305.81;5070917;28;20098;-65
2023/05/11 00:38:48;;;;;;;3.90;1.90;;;;;;;21.13;44.55;100304.13;5071067;28;20053;-65
2023/05/11 00:41:17;;;;;;;4.68;2.15;;;;;;;21.12;44.57;100301.53;5070940;28;20103;-65
2023/05/11 00:43:47;;;;;;;4.57;2.25;;;;;;;21.11;44.55;100300.69;5071004;28;20455;-65
2023/05/11 00:46:16;;;;;;;3.88;2.13;;;;;;;21.10;44.75;100299.00;5072496;28;20040;-65
2023/05/11 00:48:44;;;;;;;4.55;2.30;;;;;;;21.09;44.37;100300.00;5074583;28;20475;-65
2023/05/11 00:51:13;;;;;;;4.55;2.10;;;;;;;21.08;44.83;100303.72;5074712;28;20055;-65
2023/05/11 00:53:42;;;;;;;4.35;2.38;;;;;;;21.07;44.67;100299.31;5074702;28;20045;-65
2023/05/11 00:56:10;;;;;;;3.05;1.90;;;;;;;21.06;44.89;100294.91;5074566;28;20044;-65
2023/05/11 00:58:39;;;;;;;4.13;2.00;;;;;;;21.06;45.01;100296.78;5074591;28;20059;-65
2023/05/11 01:01:07;;;;;;;4.22;1.85;;;;;;;21.05;44.86;100295.06;5074379;28;20040;-65
2023/05/11 01:03:36;;;;;;;3.05;1.92;;;;;;;21.04;44.84;100290.66;5074452;28;20045;-65
2023/05/11 01:06:10;;;;;;;4.35;2.22;;;;;;;21.03;44.58;100291.66;5074302;28;20044;-65
2023/05/11 01:08:45;;;;;;;3.63;1.95;;;;;;;21.02;45.05;100296.22;5074388;28;20114;-65
2023/05/11 01:11:21;;;;;;;4.05;2.05;;;;;;;21.01;44.64;100297.22;5074147;28;20056;-65
2023/05/11 01:13:55;;;;;;;3.72;2.10;;;;;;;21.01;44.64;100293.66;5074021;28;20110;-65
2023/05/11 01:16:24;;;;;;;4.35;2.17;;;;;;;21.01;44.72;100296.38;5073891;28;20095;-65
2023/05/11 01:18:56;;;;;;;5.10;2.22;;;;;;;21.00;44.63;100294.69;5074240;28;20048;-65
2023/05/11 01:21:25;;;;;;;2.55;1.80;;;;;;;20.99;44.87;100293.00;5074020;28;20140;-65
2023/05/11 01:24:28;;;;;;;3.10;2.05;;;;;;;20.98;45.04;100297.56;5074030;28;20132;-65
2023/05/11 01:27:31;;;;;;;4.60;2.25;;;;;;;20.97;44.71;100293.16;5069955;28;20052;-64
2023/05/11 01:30:24;;;;;;;3.35;1.85;;;;;;;20.96;44.56;100296.03;5074036;28;20041;-65
2023/05/11 01:32:55;;;;;;;3.80;2.20;;;;;;;20.95;45.22;100295.19;5073847;28;20049;-64
2023/05/11 01:35:25;;;;;;;2.97;1.92;;;;;;;20.94;44.72;100298.03;5073712;28;20488;-64
2023/05/11 01:37:58;;;;;;;4.15;2.20;;;;;;;20.94;45.12;100295.31;5073840;28;20048;-64
2023/05/11 01:40:32;;;;;;;4.57;2.38;;;;;;;20.92;44.98;100295.47;5073705;28;20114;-64
2023/05/11 01:43:03;;;;;;;4.40;2.20;;;;;;;20.92;45.02;100289.19;5073906;28;20189;-64
2023/05/11 01:45:36;;;;;;;3.20;1.77;;;;;;;20.91;45.11;100291.06;5073553;28;20080;-64
2023/05/11 01:48:09;;;;;;;5.10;2.05;;;;;;;20.90;45.16;100292.06;5073746;28;20044;-64
2023/05/11 01:50:41;;;;;;;4.40;2.33;;;;;;;20.90;45.11;100292.06;5073405;28;20093;-64
2023/05/11 01:53:12;;;;;;;4.03;2.23;;;;;;;20.89;44.75;100290.38;5073571;28;20044;-64
2023/05/11 01:55:41;;;;;;;4.18;2.03;;;;;;;20.89;44.77;100290.38;5073399;28;20158;-64
2023/05/11 01:58:13;;;;;;;4.05;2.30;;;;;;;20.88;44.84;100287.81;5073524;28;20090;-64
2023/05/11 02:00:44;;;;;;;5.07;2.33;;;;;;;20.88;44.78;100282.41;5073467;28;20157;-64
2023/05/11 02:03:13;;;;;;;3.63;2.00;;;;;;;20.87;44.93;100286.97;5073246;28;20080;-64
2023/05/11 02:05:44;;;;;;;4.72;2.22;;;;;;;20.85;44.95;100283.56;5073208;28;20048;-64
2023/05/11 02:08:14;;;;;;;3.35;2.00;;;;;;;20.84;44.75;100282.72;5073107;28;20459;-64
2023/05/11 02:10:43;;;;;;;3.00;1.80;;;;;;;20.84;45.06;100282.72;5072815;28;20051;-64
2023/05/11 02:13:12;;;;;;;3.67;2.00;;;;;;;20.84;45.15;100279.13;5073190;28;20064;-64
2023/05/11 02:15:43;;;;;;;3.75;2.00;;;;;;;20.84;45.21;100276.41;5073122;28;20094;-64
2023/05/11 02:18:14;;;;;;;3.85;2.13;;;;;;;20.81;45.04;100280.31;5072870;28;20044;-64
2023/05/11 02:20:45;;;;;;;3.55;2.13;;;;;;;20.82;45.15;100278.44;5072999;28;20482;-63
2023/05/11 02:23:13;;;;;;;4.07;2.10;;;;;;;20.81;44.78;100274.88;5073065;28;20052;-64
2023/05/11 02:25:43;;;;;;;4.22;2.10;;;;;;;20.80;45.11;100275.06;5072919;28;20049;-64
2023/05/11 02:28:11;;;;;;;3.47;1.98;;;;;;;20.81;45.10;100276.75;5072827;28;20063;-65
2023/05/11 02:30:44;;;;;;;3.38;2.05;;;;;;;20.79;45.14;100273.34;5072647;28;20146;-65
2023/05/11 02:33:28;;;;;;;3.28;1.90;;;;;;;20.78;44.84;100271.66;5072698;28;20128;-65
2023/05/11 02:35:56;;;;;;;3.97;1.98;;;;;;;20.77;45.01;100270.81;5072498;28;20481;-64
2023/05/11 02:38:30;;;;;;;3.17;1.90;;;;;;;20.76;44.68;100268.25;5072692;28;20390;-65
2023/05/11 02:41:02;;;;;;;4.15;2.20;;;;;;;20.74;44.89;100267.53;5072478;28;20060;-65
2023/05/11 02:43:35;;;;;;;3.17;2.10;;;;;;;20.74;45.00;100265.69;5072453;28;20139;-64
2023/05/11 02:46:08;;;;;;;3.47;2.03;;;;;;;20.74;45.27;100270.25;5072288;28;20091;-64
2023/05/11 02:48:40;;;;;;;3.83;2.20;;;;;;;20.73;44.94;100273.97;5072620;28;20048;-64
2023/05/11 02:51:11;;;;;;;3.77;2.20;;;;;;;20.72;45.21;100265.00;5072473;28;20044;-64
2023/05/11 02:53:41;;;;;;;3.97;1.90;;;;;;;20.72;44.88;100256.00;5072297;28;20131;-64
2023/05/11 02:56:09;;;;;;;3.95;2.15;;;;;;;20.72;45.02;100264.13;5072202;28;20076;-64
2023/05/11 02:58:38;;;;;;;3.30;1.85;;;;;;;20.71;44.88;100259.72;5072025;28;20120;-64
2023/05/11 03:01:08;;;;;;;4.32;2.08;;;;;;;20.71;45.21;100259.72;5072209;28;20106;-64
2023/05/11 03:03:36;;;;;;;4.22;2.33;;;;;;;20.70;44.95;100258.03;5072202;28;20048;-63
2023/05/11 03:06:05;;;;;;;4.57;2.30;;;;;;;20.69;44.75;100256.34;5072022;28;20048;-64
2023/05/11 03:08:33;;;;;;;3.85;2.00;;;;;;;20.69;44.91;100259.03;5071531;28;20049;-64
2023/05/11 03:11:03;;;;;;;3.22;1.98;;;;;;;20.68;44.83;100257.34;5071777;28;20055;-64
2023/05/11 03:13:32;;;;;;;3.38;2.00;;;;;;;20.66;44.93;100257.50;5072175;28;20041;-64
2023/05/11 03:16:03;;;;;;;3.60;2.10;;;;;;;20.67;45.06;100264.63;5071799;28;20127;-65
2023/05/11 03:18:34;;;;;;;3.80;1.92;;;;;;;20.67;44.93;100263.78;5071803;28;20059;-64
2023/05/11 03:21:02;;;;;;;5.70;2.00;;;;;;;20.66;45.34;100264.78;5071829;28;20041;-64
2023/05/11 03:23:31;;;;;;;4.07;2.13;;;;;;;20.65;45.22;100263.91;5071462;28;20056;-64
2023/05/11 03:26:00;;;;;;;3.55;1.90;;;;;;;20.65;44.93;100271.19;5071570;28;20063;-64
2023/05/11 03:28:30;;;;;;;3.50;2.10;;;;;;;20.64;45.01;100272.19;5071524;28;20477;-63
2023/05/11 03:30:58;;;;;;;4.38;1.98;;;;;;;20.63;45.09;100265.94;5071407;28;20473;-64
2023/05/11 03:33:26;;;;;;;4.13;2.00;;;;;;;20.63;44.88;100273.22;5071530;28;20054;-63
2023/05/11 03:35:58;;;;;;;5.80;2.10;;;;;;;20.63;45.09;100271.34;5071417;28;20048;-65
2023/05/11 03:38:28;;;;;;;5.75;2.45;;;;;;;20.62;45.12;100276.94;5071430;28;20047;-65
2023/05/11 03:40:58;;;;;;;4.82;2.05;;;;;;;20.61;45.13;100276.06;5071543;28;20055;-64
2023/05/11 03:43:28;;;;;;;3.47;2.00;;;;;;;20.61;45.24;100276.06;5071454;28;20052;-65
2023/05/11 03:45:57;;;;;;;2.70;1.90;;;;;;;20.61;44.94;100276.06;5071309;28;20477;-65
2023/05/11 03:48:26;;;;;;;3.72;2.13;;;;;;;20.60;44.97;100278.94;5071385;28;20131;-64
2023/05/11 03:50:56;;;;;;;3.35;2.00;;;;;;;20.60;45.16;100278.94;5071156;28;20044;-65
2023/05/11 03:53:24;;;;;;;3.25;2.10;;;;;;;20.58;45.29;100282.66;5071765;28;20066;-64
2023/05/11 03:55:53;;;;;;;4.32;2.33;;;;;;;20.57;45.25;100291.81;5071249;28;20143;-64
2023/05/11 03:58:22;;;;;;;3.92;2.28;;;;;;;20.58;44.97;100284.53;5071176;28;20135;-65
2023/05/11 04:00:50;;;;;;;3.65;2.20;;;;;;;20.58;44.94;100282.66;5071207;28;20044;-65
2023/05/11 04:03:21;;;;;;;3.63;2.10;;;;;;;20.57;45.30;100286.41;5070974;28;20067;-65
2023/05/11 04:05:50;;;;;;;3.72;2.28;;;;;;;20.57;45.36;100291.81;5071351;28;20102;-64
2023/05/11 04:08:19;;;;;;;4.32;2.13;;;;;;;20.56;45.34;100290.13;5071107;28;20055;-64
2023/05/11 04:10:47;;;;;;;4.53;2.30;;;;;;;20.56;45.28;100295.53;5070905;28;20058;-64
2023/05/11 04:13:15;;;;;;;3.92;2.03;;;;;;;20.55;45.20;100291.09;5071511;28;20089;-63
2023/05/11 04:15:43;;;;;;;3.58;2.10;;;;;;;20.55;45.06;100293.78;5071116;28;20048;-64
2023/05/11 04:18:11;;;;;;;4.15;2.03;;;;;;;20.54;45.21;100297.53;5071001;28;20135;-64
2023/05/11 04:20:39;;;;;;;4.10;2.30;;;;;;;20.54;44.88;100304.78;5071850;28;20094;-64
2023/05/11 04:23:07;;;;;;;3.95;2.00;;;;;;;20.54;45.17;100300.22;5075049;28;20064;-64
2023/05/11 04:25:38;;;;;;;3.05;1.92;;;;;;;20.52;45.05;100296.84;5075218;28;20109;-63
2023/05/11 04:28:06;;;;;;;3.70;2.10;;;;;;;20.53;45.03;100311.22;5075076;28;20084;-63
2023/05/11 04:30:35;;;;;;;3.83;2.17;;;;;;;20.52;45.36;100310.38;5074878;28;20041;-65
2023/05/11 04:33:04;;;;;;;4.82;2.20;;;;;;;20.52;44.99;100310.38;5075039;28;20504;-63
2023/05/11 04:35:32;;;;;;;3.28;1.92;;;;;;;20.52;45.25;100315.78;5075049;28;20076;-64
2023/05/11 04:38:00;;;;;;;2.83;1.75;;;;;;;20.52;45.10;100320.38;5075110;28;20467;-64
2023/05/11 04:40:28;;;;;;;3.38;2.00;;;;;;;20.50;44.95;100317.81;5074874;28;20102;-63
2023/05/11 04:42:57;;;;;;;5.18;2.15;;;;;;;20.51;45.28;100310.53;5074714;28;20102;-65
2023/05/11 04:45:25;;;;;;;4.45;2.15;;;;;;;20.49;45.16;100316.13;5074666;28;20044;-63
2023/05/11 04:47:54;;;;;;;3.22;2.00;;;;;;;20.50;45.14;100306.13;5074744;28;20079;-63
2023/05/11 04:50:22;;;;;;;2.85;1.80;;;;;;;20.49;45.30;100316.13;5074632;28;20045;-65
2023/05/11 04:52:50;;;;;;;4.22;2.20;;;;;;;20.49;44.83;100317.97;5054362;28;20045;-65
2023/05/11 04:55:18;;;;;;;2.92;1.70;;;;;;;20.48;44.96;100314.41;5054258;28;20081;-65
2023/05/11 04:57:47;;;;;;;4.30;1.98;;;;;;;20.48;44.96;100309.00;5054272;28;20045;-66
2023/05/11 05:00:17;;;;;;;3.10;1.75;;;;;;;20.48;44.94;100319.84;5054566;28;20114;-66
2023/05/11 05:02:46;;;;;;;3.75;2.22;;;;;;;20.48;44.75;100319.84;5054634;28;20045;-66
2023/05/11 05:05:14;;;;;;;3.58;1.90;;;;;;;20.47;45.19;100323.56;5071117;28;20037;-64
2023/05/11 05:07:42;;;;;;;3.35;1.90;;;;;;;20.47;44.89;100320.84;5074334;28;20072;-64
2023/05/11 05:10:11;;;;;;;3.65;2.00;;;;;;;20.47;44.98;100328.97;5073738;28;20409;-66
2023/05/11 05:12:40;;;;;;;3.88;2.10;;;;;;;20.46;44.72;100316.44;5073336;28;20544;-64
2023/05/11 05:15:10;;;;;;;3.97;2.10;;;;;;;20.44;45.09;100313.00;5073607;28;20098;-60
2023/05/11 05:17:39;;;;;;;4.50;2.05;;;;;;;20.44;44.73;100318.41;5073727;28;20076;-63
2023/05/11 05:20:08;;;;;;;4.43;2.00;;;;;;;20.45;45.21;100324.69;5073087;28;20109;-63
2023/05/11 05:22:36;;;;;;;5.57;2.22;;;;;;;20.43;45.04;100327.56;5073592;28;20071;-64
2023/05/11 05:25:05;;;;;;;5.25;2.22;;;;;;;20.44;45.27;100320.28;5073281;28;20102;-64
2023/05/11 05:27:34;;;;;;;4.85;2.38;;;;;;;20.45;45.11;100320.13;5070770;28;20044;-64
2023/05/11 05:30:02;;;;;;;4.05;2.00;;;;;;;20.43;45.54;100322.13;5073256;28;20463;-65
2023/05/11 05:32:30;;;;;;;4.63;2.20;;;;;;;20.44;45.34;100323.00;5069742;28;20047;-64
2023/05/11 05:35:00;;;;;;;7.30;2.28;;;;;;;20.43;45.39;100327.56;5073013;28;20041;-64
2023/05/11 05:37:28;;;;;;;4.10;2.00;;;;;;;20.44;45.17;100329.25;5072703;28;20052;-64
2023/05/11 05:39:56;;;;;;;5.85;2.25;;;;;;;20.42;45.36;100323.13;5072757;28;20090;-64
2023/05/11 05:42:24;;;;;;;4.25;2.15;;;;;;;20.43;45.15;100322.13;5073147;28;20049;-65
2023/05/11 05:44:52;;;;;;;5.20;2.00;;;;;;;20.43;45.18;100327.56;5073265;28;20048;-64
2023/05/11 05:47:20;;;;;;;4.82;2.08;;;;;;;20.43;45.35;100332.97;5073193;28;20045;-64
2023/05/11 05:49:48;;;;;;;5.13;2.22;;;;;;;20.43;45.28;100338.41;5072208;28;20452;-63
2023/05/11 05:52:18;;;;;;;4.60;2.00;;;;;;;20.44;45.39;100337.38;5072208;28;20049;-63
2023/05/11 05:54:46;;;;;;;5.47;2.20;;;;;;;20.43;45.43;100335.69;5073326;28;20044;-64
2023/05/11 05:57:14;;;;;;;4.60;2.42;;;;;;;20.44;45.74;100339.25;5073532;28;20131;-65
2023/05/11 05:59:43;;;;;;;3.38;2.22;;;;;;;20.44;45.36;100339.25;5073306;28;20051;-64
2023/05/11 06:02:12;;;;;;;5.65;2.28;;;;;;;20.43;45.46;100341.09;5073309;28;20072;-64
2023/05/11 06:04:40;;;;;;;5.93;2.00;;;;;;;20.44;45.43;100345.50;5088816;28;20052;-64
2023/05/11 06:07:09;;;;;;;4.28;2.08;;;;;;;20.45;45.39;100344.50;5093366;28;20052;-65
2023/05/11 06:09:41;;;;;;;5.05;2.25;;;;;;;20.44;45.69;100341.94;5093376;28;20050;-64
2023/05/11 06:12:09;;;;;;;5.25;2.28;;;;;;;20.46;45.27;100337.22;5093553;28;20047;-64
2023/05/11 06:14:38;;;;;;;5.07;1.98;;;;;;;20.45;45.47;100341.78;5090501;28;20040;-66
2023/05/11 06:17:06;;;;;;;4.03;2.20;;;;;;;20.45;45.45;100339.09;5072770;28;20051;-65
2023/05/11 06:19:34;;;;;;;4.28;2.15;;;;;;;20.46;45.66;100340.81;5072774;28;20088;-65
2023/05/11 06:22:02;;;;;;;5.18;1.98;;;;;;;20.47;45.84;100339.81;5072431;28;20074;-65
2023/05/11 06:24:33;;;;;;;5.05;2.00;;;;;;;20.48;46.00;100348.78;5072082;28;20465;-65
2023/05/11 06:27:03;;;;;;;6.93;2.20;;;;;;;20.48;45.55;100346.94;5072741;28;20048;-65
2023/05/11 06:29:31;;;;;;;6.35;2.50;;;;;;;20.47;45.76;100342.53;5072507;28;20131;-65
2023/05/11 06:31:59;;;;;;;5.72;2.20;;;;;;;20.48;45.95;100344.22;5072568;28;20049;-65
2023/05/11 06:34:28;;;;;;;5.05;2.10;;;;;;;20.49;46.29;100339.66;5072254;28;20083;-65
2023/05/11 06:36:59;;;;;;;6.45;2.10;;;;;;;20.49;46.40;100345.91;5072501;28;20049;-65
2023/05/11 06:39:27;;;;;;;4.10;2.13;;;;;;;20.49;46.07;100337.78;5072180;28;20492;-65
2023/05/11 06:41:55;;;;;;;4.95;2.20;;;;;;;20.51;46.08;100341.19;5072280;28;20049;-65
2023/05/11 06:44:28;;;;;;;4.55;2.08;;;;;;;20.51;45.88;100335.78;5070762;28;20054;-65
2023/05/11 06:46:56;;;;;;;4.18;2.10;;;;;;;20.51;46.21;100335.78;5072042;28;20055;-64
2023/05/11 06:49:25;;;;;;;4.50;2.05;;;;;;;20.51;46.02;100335.78;5071987;28;20051;-64
2023/05/11 06:51:53;;;;;;;4.82;1.95;;;;;;;20.52;45.85;100337.47;5071712;28;20048;-65
2023/05/11 06:54:21;;;;;;;6.78;2.03;;;;;;;20.53;46.31;100341.03;5071910;28;20041;-64
2023/05/11 06:56:49;;;;;;;4.65;2.20;;;;;;;20.53;46.46;100333.75;5071595;28;20044;-64
2023/05/11 06:59:17;;;;;;;5.32;2.22;;;;;;;20.54;46.48;100340.03;5071539;28;20089;-64
2023/05/11 07:01:47;;;;;;;7.40;2.28;;;;;;;20.54;46.46;100335.44;5071816;28;20083;-64
2023/05/11 07:04:15;;;;;;;6.47;2.53;;;;;;;20.54;46.36;100335.44;5071737;28;20083;-64
2023/05/11 07:06:43;;;;;;;4.25;2.00;;;;;;;20.54;46.36;100330.03;5071801;28;20076;-65
2023/05/11 07:09:12;;;;;;;6.22;2.53;;;;;;;20.56;46.49;100329.91;5071695;28;20537;-65
2023/05/11 07:11:40;;;;;;;4.78;2.50;;;;;;;20.55;46.22;100329.03;5071664;28;20052;-65
2023/05/11 07:14:08;;;;;;;7.70;2.40;;;;;;;20.56;46.16;100330.75;5071936;28;20052;-65
2023/05/11 07:16:37;;;;;;;7.35;2.13;;;;;;;20.57;46.02;100334.31;5071843;28;20079;-65
2023/05/11 07:19:08;;;;;;;6.43;2.58;;;;;;;20.57;46.38;100324.31;5071599;28;20059;-65
2023/05/11 07:21:37;;;;;;;6.57;2.28;;;;;;;20.58;46.41;100326.03;5071623;28;20092;-65
2023/05/11 07:24:05;;;;;;;5.43;2.23;;;;;;;20.59;46.10;100321.47;5071358;28;20045;-64
2023/05/11 07:26:33;;;;;;;4.90;2.35;;;;;;;20.57;46.17;100318.91;5071303;28;20085;-65
2023/05/11 07:29:02;;;;;;;4.82;2.30;;;;;;;20.60;46.66;100316.88;5071641;28;20060;-64
2023/05/11 07:31:30;;;;;;;5.85;2.10;;;;;;;20.60;46.53;100316.88;5071531;28;20044;-65
2023/05/11 07:33:59;;;;;;;7.68;2.60;;;;;;;20.61;46.14;100314.00;5071198;28;20490;-63
2023/05/11 07:36:28;;;;;;;6.93;2.72;;;;;;;20.62;46.02;100325.72;5071332;28;20056;-64
2023/05/11 07:38:58;;;;;;;6.30;2.28;;;;;;;20.62;46.68;100320.28;5071092;28;20136;-65
2023/05/11 07:41:26;;;;;;;6.47;2.50;;;;;;;20.63;46.09;100316.56;5071422;28;20118;-64
2023/05/11 07:43:55;;;;;;;5.43;2.30;;;;;;;20.64;46.51;100312.84;5071291;28;20048;-64
2023/05/11 07:46:23;;;;;;;7.68;2.50;;;;;;;20.65;46.25;100317.25;5071345;28;20067;-65
2023/05/11 07:48:51;;;;;;;4.80;2.22;;;;;;;20.65;46.57;100309.13;5071154;28;20048;-65
2023/05/11 07:51:40;;;;;;;6.43;2.67;;;;;;;20.66;46.54;100316.28;5071378;28;20129;-65
2023/05/11 07:54:09;;;;;;;7.18;2.65;;;;;;;20.66;46.34;100316.28;5070923;28;20046;-65
2023/05/11 07:56:37;;;;;;;5.32;2.20;;;;;;;20.67;46.22;100317.97;5070868;28;20084;-65
2023/05/11 07:59:05;;;;;;;4.93;2.22;;;;;;;20.67;46.40;100317.97;5070921;28;20094;-65
2023/05/11 08:01:33;;;;;;;5.10;2.35;;;;;;;20.68;46.55;100319.69;5071211;28;20048;-64
2023/05/11 08:04:01;;;;;;;6.82;2.55;;;;;;;20.68;46.21;100315.09;5070963;28;20064;-65
2023/05/11 08:06:30;;;;;;;6.25;2.30;;;;;;;20.70;46.05;100323.06;5071202;28;20087;-65
2023/05/11 08:08:59;;;;;;;6.07;2.22;;;;;;;20.70;46.53;100313.09;5071181;28;20140;-64
2023/05/11 08:11:27;;;;;;;7.65;2.42;;;;;;;20.71;46.42;100314.78;5070833;28;20524;-64
2023/05/11 08:13:55;;;;;;;6.35;2.22;;;;;;;20.72;46.45;100313.78;5070925;28;20428;-64
2023/05/11 08:16:24;;;;;;;5.07;2.40;;;;;;;20.73;46.10;100311.91;5070587;28;20171;-65
2023/05/11 08:18:52;;;;;;;4.57;2.40;;;;;;;20.73;46.41;100301.91;5071141;28;20083;-65
2023/05/11 08:21:20;;;;;;;4.20;2.10;;;;;;;20.74;46.32;100302.78;5071027;28;20443;-65
2023/05/11 08:23:48;;;;;;;4.20;2.10;;;;;;;20.75;46.30;100293.63;5070791;28;20102;-65
2023/05/11 08:26:17;;;;;;;5.13;2.10;;;;;;;20.76;46.01;100308.91;5070742;28;20052;-65
2023/05/11 08:28:50;;;;;;;6.88;2.55;;;;;;;20.76;45.78;100296.22;5070707;28;20055;-65
2023/05/11 08:31:18;;;;;;;;;;;;;;;20.79;46.08;100290.47;5071446;28;20395;-65
2023/05/11 08:33:46;;;;;;;5.28;2.58;;;;;;;20.79;45.89;100297.75;5070981;28;20285;-65
2023/05/11 08:36:15;;;;;;;4.97;2.40;;;;;;;20.81;46.02;100295.72;5070927;28;20136;-65
2023/05/11 08:38:43;;;;;;;6.10;2.50;;;;;;;20.81;45.91;100288.44;5070787;28;20048;-65
2023/05/11 08:41:12;;;;;;;5.05;2.17;;;;;;;20.83;45.90;100291.00;5071021;28;20135;-65
2023/05/11 08:43:43;;;;;;;7.35;2.40;;;;;;;20.83;45.79;100285.56;5070440;28;20074;-64
2023/05/11 08:46:14;;;;;;;5.57;2.42;;;;;;;20.84;45.67;100292.69;5070731;28;20098;-64
2023/05/11 08:48:43;;;;;;;4.72;2.33;;;;;;;20.85;45.77;100278.16;5070584;28;20516;-64
2023/05/11 08:51:11;;;;;;;5.80;2.30;;;;;;;20.86;46.03;100277.16;5070777;28;20095;-64
2023/05/11 08:53:39;;;;;;;4.32;2.10;;;;;;;20.87;45.80;100276.13;5070568;28;20059;-65
2023/05/11 08:56:09;;;;;;;5.13;2.50;;;;;;;20.89;45.86;100284.09;5070328;28;20487;-65
2023/05/11 08:58:38;;;;;;;7.07;2.30;;;;;;;20.90;46.23;100269.53;5070499;28;20095;-65
2023/05/11 09:01:11;;;;;;;4.85;2.53;;;;;;;20.92;46.20;100272.94;5070538;28;20045;-65
2023/05/11 09:03:40;;;;;;;6.20;2.47;;;;;;;20.93;46.32;100269.22;5070690;28;20060;-66
2023/05/11 09:06:09;;;;;;;6.55;2.75;;;;;;;20.94;46.54;100273.63;5070399;28;20059;-65
2023/05/11 09:08:39;;;;;;;5.65;2.35;;;;;;;20.95;46.57;100265.34;5073779;28;20466;-65
2023/05/11 09:11:08;;;;;;;5.53;2.45;;;;;;;20.96;46.69;100267.06;5074371;28;20055;-66
2023/05/11 09:13:36;;;;;;;5.13;2.40;;;;;;;20.97;46.57;100266.03;5074220;28;20051;-65
2023/05/11 09:16:05;;;;;;;5.00;2.30;;;;;;;20.99;46.44;100261.31;5074198;28;20060;-65
2023/05/11 09:18:53;;;;;;;3.97;2.20;;;;;;;21.01;46.49;100261.13;5073861;28;20128;-65
2023/05/11 09:21:24;;;;;;;5.47;2.47;;;;;;;21.03;46.76;100248.25;5073724;28;20076;-66
2023/05/11 09:23:57;;;;;;;4.38;2.45;;;;;;;21.04;46.41;100256.25;5073857;28;20080;-65
2023/05/11 09:26:28;;;;;;;4.50;2.10;;;;;;;21.05;46.73;100251.69;5073834;28;20048;-65
2023/05/11 09:28:58;;;;;;;4.70;2.10;;;;;;;21.06;46.38;100243.38;5073822;28;20056;-65
2023/05/11 09:31:39;;;;;;;4.30;2.38;;;;;;;21.07;46.62;100242.38;5073686;28;20048;-65
2023/05/11 09:34:14;;;;;;;2.97;1.83;;;;;;;21.08;46.48;100244.06;5073920;28;20045;-64
2023/05/11 09:36:42;;;;;;;3.92;2.17;;;;;;;21.11;46.60;100240.19;5074223;28;20426;-64
2023/05/11 09:39:11;;;;;;;4.25;2.25;;;;;;;21.12;46.63;100239.16;5073905;28;20051;-64
2023/05/11 09:41:44;;;;;;;6.25;2.35;;;;;;;21.13;46.61;100239.03;5073429;28;20543;-65
2023/05/11 09:44:14;;;;;;;5.15;2.00;;;;;;;21.15;46.68;100242.44;5073295;28;20458;-64
2023/05/11 09:46:43;;;;;;;5.78;2.22;;;;;;;21.17;46.40;100238.69;5073293;28;20131;-65
2023/05/11 09:49:13;;;;;;;3.65;1.88;;;;;;;21.19;46.42;100225.81;5073254;28;20485;-65
2023/05/11 09:51:42;;;;;;;4.90;2.20;;;;;;;21.19;46.57;100229.38;5073273;28;20045;-65
2023/05/11 09:54:18;;;;;;;5.00;1.98;;;;;;;21.22;46.55;100225.50;5072980;28;20044;-64
2023/05/11 09:56:48;;;;;;;4.35;2.47;;;;;;;21.23;46.28;100232.63;5073023;28;20566;-65
2023/05/11 09:59:17;;;;;;;5.55;2.25;;;;;;;21.25;46.32;100231.47;5073161;28;20479;-66
2023/05/11 10:01:46;;;;;;;4.45;2.38;;;;;;;21.26;46.03;100225.06;5073133;28;20447;-65
2023/05/11 10:04:15;;;;;;;3.63;2.10;;;;;;;21.28;46.45;100219.47;5073049;28;20072;-65
2023/05/11 10:06:52;;;;;;;3.53;2.05;;;;;;;21.29;46.52;100222.00;5072848;28;20048;-65
2023/05/11 10:09:24;;;;;;;3.28;1.80;;;;;;;21.31;46.51;100224.56;5072748;28;20425;-64
2023/05/11 10:11:55;;;;;;;5.85;2.13;;;;;;;21.32;46.27;100218.13;5072871;28;20053;-65
2023/05/11 10:14:26;;;;;;;3.80;2.20;;;;;;;21.33;46.37;100209.84;5072847;28;20049;-65
2023/05/11 10:16:57;;;;;;;4.43;2.00;;;;;;;21.36;46.09;100216.78;5072640;28;20074;-65
2023/05/11 10:19:27;;;;;;;4.05;2.15;;;;;;;21.37;45.98;100219.34;5072683;28;20515;-66
2023/05/11 10:21:57;;;;;;;3.83;2.10;;;;;;;21.39;46.03;100213.75;5072584;28;20124;-65
2023/05/11 10:24:25;;;;;;;5.60;2.60;;;;;;;21.40;46.23;100223.59;5072643;28;20131;-65
2023/05/11 10:26:56;;;;;;;4.65;2.30;;;;;;;21.42;46.06;100210.69;5072815;28;20080;-65
2023/05/11 10:29:24;;;;;;;3.53;1.98;;;;;;;21.45;45.54;100204.97;5072567;28;20050;-66
2023/05/11 10:31:53;;;;;;;5.28;2.33;;;;;;;21.46;45.72;100209.38;5072498;28;20052;-65
2023/05/11 10:34:22;;;;;;;4.30;2.28;;;;;;;21.47;45.43;100213.78;5072473;28;20052;-65
2023/05/11 10:36:53;;;;;;;4.35;2.10;;;;;;;21.51;45.67;100200.72;5072662;28;20048;-65
2023/05/11 10:39:21;;;;;;;4.38;1.90;;;;;;;21.51;45.33;100193.44;5072592;28;20048;-65
2023/05/11 10:42:05;;;;;;;3.00;1.65;;;;;;;21.53;45.46;100202.28;5072365;28;20074;-65
2023/05/11 10:44:52;;;;;;;4.95;2.45;;;;;;;21.55;45.14;100193.97;5072140;28;20048;-65
2023/05/11 10:47:44;;;;;;;5.25;2.10;;;;;;;21.58;45.18;100199.06;5072276;28;20044;-65
2023/05/11 10:50:33;;;;;;;5.82;2.28;;;;;;;21.59;45.06;100188.03;5072313;28;20044;-65
2023/05/11 10:53:16;;;;;;;3.75;2.08;;;;;;;21.61;45.15;100191.44;5072074;28;20099;-64
2023/05/11 10:56:05;;;;;;;2.97;1.90;;;;;;;21.64;45.11;100185.69;5072153;28;20485;-64
2023/05/11 10:58:51;;;;;;;3.97;2.20;;;;;;;21.67;44.90;100179.09;5071662;28;20053;-65
2023/05/11 11:01:30;;;;;;;5.05;2.22;;;;;;;21.69;44.69;100186.03;5071279;28;20161;-64
2023/05/11 11:04:01;;;;;;;3.80;1.83;;;;;;;21.70;44.47;100184.16;5071354;28;20426;-64
2023/05/11 11:06:32;;;;;;;4.15;2.22;;;;;;;21.71;44.57;100178.59;5071588;28;20049;-65
2023/05/11 11:09:03;;;;;;;4.28;2.08;;;;;;;21.73;44.63;100167.56;5071346;28;20048;-64
2023/05/11 11:11:37;;;;;;;4.65;2.08;;;;;;;21.77;44.23;100176.22;5071234;28;20480;-65
2023/05/11 11:14:08;;;;;;;3.65;2.00;;;;;;;21.79;44.24;100176.91;5071460;28;20566;-65
2023/05/11 11:16:37;;;;;;;4.38;2.00;;;;;;;21.81;44.12;100167.59;5071815;28;20048;-64
2023/05/11 11:19:41;;;;;;;3.25;1.83;;;;;;;21.83;44.31;100172.84;5071716;28;20398;-65
2023/05/11 11:22:43;;;;;;;3.60;1.80;;;;;;;21.85;44.23;100173.53;5071514;28;20151;-66
2023/05/11 11:25:13;;;;;;;3.90;2.00;;;;;;;21.87;44.03;100172.34;5071965;28;20095;-66
2023/05/11 11:27:58;;;;;;;5.97;2.38;;;;;;;21.88;43.91;100167.75;5071914;28;20525;-66
2023/05/11 11:30:29;;;;;;;3.90;1.90;;;;;;;21.90;43.76;100160.28;5071111;28;20052;-66
2023/05/11 11:33:39;;;;;;;3.40;1.90;;;;;;;21.92;43.85;100155.56;5071244;28;20044;-66
2023/05/11 11:36:07;;;;;;;3.85;2.10;;;;;;;21.95;43.72;100153.34;5035665;28;20555;-66
2023/05/11 11:38:59;;;;;;;3.75;1.85;;;;;;;21.98;43.62;100157.59;5071452;28;20060;-65
2023/05/11 11:41:32;;;;;;;4.38;2.13;;;;;;;21.99;43.44;100165.56;5071625;28;20055;-66